Time;durP1;ratioP1;P1;durP2;ratioP2;P2;SDS_P1;SDS_P2;PMS_P1;PMS_P2;Temp;Humidity;BMP_temperature;BMP_pressure;BME280_temperature;BME280_humidity;BME280_pressure;Samples;Min_cycle;Max_cycle;Signal;HPM_P1;HPM_P2
2021/01/24 00:00:05;;;;;;;;;;;29.80;90.40;;;;;;4994366;28;19914;-78
2021/01/24 00:02:31;;;;;;;;;;;29.70;90.20;;;;;;4977074;28;19913;-79
2021/01/24 00:04:58;;;;;;;;;;;29.90;90.10;;;;;;4994959;28;19910;-79
2021/01/24 00:07:25;;;;;;;;;;;29.90;89.00;;;;;;5009220;28;19922;-79
2021/01/24 00:09:51;;;;;;;;;;;30.00;89.90;;;;;;4997041;28;19909;-76
2021/01/24 00:12:18;;;;;;;;;;;30.20;88.30;;;;;;4993626;28;20084;-76
2021/01/24 00:14:45;;;;;;;;;;;30.10;89.20;;;;;;4993558;28;20280;-76
2021/01/24 00:17:11;;;;;;;;;;;30.10;89.00;;;;;;4976549;28;20285;-76
2021/01/24 00:19:38;;;;;;;;;;;30.10;88.60;;;;;;4995311;28;20365;-75
2021/01/24 00:22:05;;;;;;;;;;;30.10;89.20;;;;;;5004150;28;19918;-77
2021/01/24 00:24:31;;;;;;;;;;;30.30;87.00;;;;;;4995736;28;19914;-78
2021/01/24 00:26:58;;;;;;;;;;;30.30;88.50;;;;;;4994257;28;19914;-77
2021/01/24 00:29:25;;;;;;;;;;;30.30;86.20;;;;;;4993987;28;19997;-79
2021/01/24 00:31:51;;;;;;;;;;;30.40;86.70;;;;;;4993961;28;20284;-80
2021/01/24 00:34:18;;;;;;;;;;;30.50;86.30;;;;;;4993415;28;19976;-77
2021/01/24 00:36:45;;;;;;;;;;;30.50;86.50;;;;;;4994136;28;20002;-78
2021/01/24 00:39:12;;;;;;;;;;;30.60;87.10;;;;;;4992972;28;20353;-78
2021/01/24 00:41:38;;;;;;;;;;;30.80;86.00;;;;;;4981799;28;19945;-80
2021/01/24 00:44:05;;;;;;;;;;;30.80;85.50;;;;;;5009502;28;19914;-79
2021/01/24 00:46:32;;;;;;;;;;;30.80;85.10;;;;;;4996833;28;20312;-78
2021/01/24 00:48:59;;;;;;;;;;;30.90;85.30;;;;;;4976181;28;19914;-80
2021/01/24 00:51:25;;;;;;;;;;;31.00;84.60;;;;;;4972812;28;20004;-83
2021/01/24 00:53:52;;;;;;;;;;;30.90;83.50;;;;;;4991981;28;19929;-81
2021/01/24 00:56:18;;;;;;;;;;;30.90;84.00;;;;;;4990277;28;20287;-78
2021/01/24 00:58:45;;;;;;;;;;;30.90;83.80;;;;;;4990193;28;20388;-84
2021/01/24 01:01:12;;;;;;;;;;;31.10;82.70;;;;;;4993642;28;19997;-78
2021/01/24 01:03:40;;;;;;;;;;;31.30;82.00;;;;;;4992421;28;19948;-78
2021/01/24 01:06:07;;;;;;;;;;;31.70;80.90;;;;;;4993601;28;20012;-79
2021/01/24 01:08:33;;;;;;;;;;;32.10;78.80;;;;;;4975397;28;19964;-76
2021/01/24 01:11:00;;;;;;;;;;;32.20;78.60;;;;;;4985333;28;19932;-76
2021/01/24 01:13:27;;;;;;;;;;;32.50;78.00;;;;;;4986844;28;19929;-77
2021/01/24 01:15:53;;;;;;;;;;;32.60;76.50;;;;;;4985391;28;19968;-77
2021/01/24 01:18:20;;;;;;;;;;;32.60;76.30;;;;;;4992576;28;19920;-75
2021/01/24 01:20:47;;;;;;;;;;;32.80;74.80;;;;;;4986063;28;20448;-77
2021/01/24 01:23:14;;;;;;;;;;;32.70;75.60;;;;;;4988190;28;19914;-77
2021/01/24 01:25:40;;;;;;;;;;;32.70;74.30;;;;;;5000313;28;19937;-78
2021/01/24 01:28:07;;;;;;;;;;;32.60;74.70;;;;;;4990491;28;19957;-77
2021/01/24 01:30:34;;;;;;;;;;;32.50;73.90;;;;;;4985862;28;19947;-77
2021/01/24 01:33:00;;;;;;;;;;;32.60;73.10;;;;;;4990839;28;19918;-77
2021/01/24 01:35:27;;;;;;;;;;;32.50;73.20;;;;;;4989081;28;19918;-77
2021/01/24 01:37:54;;;;;;;;;;;32.90;72.90;;;;;;4990956;28;19910;-78
2021/01/24 01:40:22;;;;;;;;;;;33.20;72.40;;;;;;4991964;28;19949;-79
2021/01/24 01:42:48;;;;;;;;;;;33.20;71.60;;;;;;4992697;28;20266;-78
2021/01/24 01:45:15;;;;;;;;;;;33.40;71.30;;;;;;4993405;28;20333;-76
2021/01/24 01:47:42;;;;;;;;;;;33.30;70.70;;;;;;5006688;28;19982;-78
2021/01/24 01:50:09;;;;;;;;;;;33.10;71.50;;;;;;4995606;28;19918;-79
2021/01/24 01:52:35;;;;;;;;;;;32.80;72.00;;;;;;4995936;28;20368;-77
2021/01/24 01:55:02;;;;;;;;;;;33.00;71.90;;;;;;4995991;28;19936;-81
2021/01/24 01:57:29;;;;;;;;;;;32.90;71.40;;;;;;4994251;28;19939;-78
2021/01/24 01:59:56;;;;;;;;;;;32.60;72.00;;;;;;4997882;28;19941;-79
2021/01/24 02:02:41;;;;;;;;;;;32.80;72.10;;;;;;5015727;28;19951;-77
2021/01/24 02:05:07;;;;;;;;;;;32.30;71.70;;;;;;5012553;28;20368;-75
2021/01/24 02:07:42;;;;;;;;;;;32.00;73.70;;;;;;5012579;28;19952;-79
2021/01/24 02:10:38;;;;;;;;;;;31.80;74.00;;;;;;4988316;28;19922;-78
2021/01/24 02:13:36;;;;;;;;;;;31.60;75.10;;;;;;4989160;28;20403;-78
2021/01/24 02:16:04;;;;;;;;;;;31.50;74.00;;;;;;4964278;28;19914;-79
2021/01/24 02:18:33;;;;;;;;;;;31.40;72.80;;;;;;4988762;28;19914;-78
2021/01/24 02:21:15;;;;;;;;;;;31.40;72.40;;;;;;4984206;28;20276;-77
2021/01/24 02:23:43;;;;;;;;;;;31.40;71.70;;;;;;4985854;28;19949;-78
2021/01/24 02:26:27;;;;;;;;;;;31.30;71.30;;;;;;4994866;28;19918;-76
2021/01/24 02:28:54;;;;;;;;;;;31.40;71.50;;;;;;4995298;28;19910;-77
2021/01/24 02:31:21;;;;;;;;;;;31.30;70.50;;;;;;4993571;28;20309;-78
2021/01/24 02:33:49;;;;;;;;;;;31.30;70.80;;;;;;4996275;28;19961;-79
2021/01/24 02:36:17;;;;;;;;;;;31.40;71.30;;;;;;4995997;28;19918;-78
2021/01/24 02:38:44;;;;;;;;;;;31.30;71.10;;;;;;4977377;28;19937;-79
2021/01/24 02:41:11;;;;;;;;;;;31.30;72.20;;;;;;4994955;28;19910;-79
2021/01/24 02:43:42;;;;;;;;;;;31.30;71.30;;;;;;4977694;28;20347;-80
2021/01/24 02:46:09;;;;;;;;;;;31.40;71.50;;;;;;4995313;28;19910;-78
2021/01/24 02:48:36;;;;;;;;;;;31.30;72.20;;;;;;4994155;28;19916;-79
2021/01/24 02:51:03;;;;;;;;;;;31.30;71.80;;;;;;5012353;28;19910;-79
2021/01/24 02:53:34;;;;;;;;;;;31.40;72.00;;;;;;5005509;28;20291;-80
2021/01/24 02:56:03;;;;;;;;;;;31.40;71.50;;;;;;4983395;28;19969;-79
2021/01/24 02:58:31;;;;;;;;;;;31.50;70.90;;;;;;4975998;28;20005;-81
2021/01/24 03:00:57;;;;;;;;;;;31.50;70.90;;;;;;4982545;28;19914;-79
2021/01/24 03:03:24;;;;;;;;;;;31.40;70.60;;;;;;4975852;28;19914;-77
2021/01/24 03:05:52;;;;;;;;;;;31.40;71.00;;;;;;4977307;28;20027;-77
2021/01/24 03:08:20;;;;;;;;;;;31.40;70.80;;;;;;4976473;28;19914;-77
2021/01/24 03:10:47;;;;;;;;;;;31.40;70.80;;;;;;4986612;28;19972;-78
2021/01/24 03:13:20;;;;;;;;;;;31.40;70.60;;;;;;4987236;28;19918;-80
2021/01/24 03:15:48;;;;;;;;;;;31.40;70.60;;;;;;4977046;28;19925;-79
2021/01/24 03:18:18;;;;;;;;;;;31.50;70.00;;;;;;4995600;28;19996;-83
2021/01/24 03:20:45;;;;;;;;;;;31.50;70.00;;;;;;4983983;28;19913;-79
2021/01/24 03:23:12;;;;;;;;;;;31.60;69.30;;;;;;4995226;28;20289;-83
2021/01/24 03:25:40;;;;;;;;;;;31.50;69.90;;;;;;4995647;28;19976;-81
2021/01/24 03:28:07;;;;;;;;;;;31.40;68.80;;;;;;4995520;28;20356;-81
2021/01/24 03:30:36;;;;;;;;;;;31.30;69.80;;;;;;4992606;28;20280;-80
2021/01/24 03:33:03;;;;;;;;;;;31.40;69.10;;;;;;4978670;28;20241;-82
2021/01/24 03:35:30;;;;;;;;;;;31.40;69.50;;;;;;4973397;28;20261;-83
2021/01/24 03:37:56;;;;;;;;;;;31.40;68.50;;;;;;4996539;28;19964;-82
2021/01/24 03:40:23;;;;;;;;;;;31.30;70.00;;;;;;4974214;28;19918;-81
2021/01/24 03:42:50;;;;;;;;;;;31.30;70.00;;;;;;4985886;28;20033;-81
2021/01/24 03:45:17;;;;;;;;;;;31.20;68.60;;;;;;4987611;28;20391;-82
2021/01/24 03:47:43;;;;;;;;;;;31.20;68.90;;;;;;4985804;28;19909;-79
2021/01/24 03:50:10;;;;;;;;;;;31.30;69.60;;;;;;4985247;28;19925;-81
2021/01/24 03:52:40;;;;;;;;;;;31.30;68.60;;;;;;5001894;28;19922;-79
2021/01/24 03:55:07;;;;;;;;;;;31.20;68.40;;;;;;5008828;28;19945;-78
2021/01/24 03:57:38;;;;;;;;;;;31.10;68.10;;;;;;5002919;28;19917;-82
2021/01/24 04:00:06;;;;;;;;;;;31.20;68.20;;;;;;5005090;28;19945;-82
2021/01/24 04:02:35;;;;;;;;;;;31.30;68.00;;;;;;4979543;28;21539;-79
2021/01/24 04:05:02;;;;;;;;;;;31.30;67.80;;;;;;4984946;28;20013;-79
2021/01/24 04:07:29;;;;;;;;;;;31.20;66.10;;;;;;4988821;28;19914;-79
2021/01/24 04:09:55;;;;;;;;;;;31.10;66.10;;;;;;4989590;28;20403;-82
2021/01/24 04:12:22;;;;;;;;;;;31.00;65.20;;;;;;4986674;28;19914;-81
2021/01/24 04:14:49;;;;;;;;;;;30.90;65.70;;;;;;4991520;28;20036;-79
2021/01/24 04:17:15;;;;;;;;;;;30.90;65.60;;;;;;5012364;28;19954;-81
2021/01/24 04:19:42;;;;;;;;;;;30.90;65.90;;;;;;4989730;28;19917;-81
2021/01/24 04:22:09;;;;;;;;;;;30.80;65.80;;;;;;4988604;28;19920;-81
2021/01/24 04:24:35;;;;;;;;;;;30.80;66.00;;;;;;4968447;28;20008;-80
2021/01/24 04:27:05;;;;;;;;;;;30.80;65.80;;;;;;4984491;28;19925;-81
2021/01/24 04:29:32;;;;;;;;;;;30.90;64.80;;;;;;4988819;28;20312;-81
2021/01/24 04:32:00;;;;;;;;;;;30.90;64.80;;;;;;4985851;28;19918;-82
2021/01/24 04:34:26;;;;;;;;;;;30.90;64.50;;;;;;5010275;28;20004;-82
2021/01/24 04:36:53;;;;;;;;;;;30.90;64.10;;;;;;5000074;28;19914;-82
2021/01/24 04:39:20;;;;;;;;;;;30.80;63.90;;;;;;4993210;28;19917;-80
2021/01/24 04:41:50;;;;;;;;;;;30.70;64.70;;;;;;4984042;28;19924;-82
2021/01/24 04:44:17;;;;;;;;;;;30.80;63.30;;;;;;4990172;28;19917;-81
2021/01/24 04:46:45;;;;;;;;;;;30.80;64.10;;;;;;4994553;28;20002;-81
2021/01/24 04:49:12;;;;;;;;;;;30.70;64.70;;;;;;4994258;28;19917;-80
2021/01/24 04:51:39;;;;;;;;;;;30.70;63.90;;;;;;4996376;28;19910;-81
2021/01/24 04:54:06;;;;;;;;;;;30.70;64.30;;;;;;4992033;28;19932;-83
2021/01/24 04:56:37;;;;;;;;;;;30.80;64.00;;;;;;4983461;28;19922;-82
2021/01/24 04:59:04;;;;;;;;;;;30.80;63.60;;;;;;4990094;28;20008;-81
2021/01/24 05:01:32;;;;;;;;;;;30.70;61.30;;;;;;4975131;28;20393;-83
2021/01/24 05:03:59;;;;;;;;;;;30.60;64.20;;;;;;4974436;28;19917;-81
2021/01/24 05:06:27;;;;;;;;;;;30.60;62.70;;;;;;4988689;28;19914;-81
2021/01/24 05:08:58;;;;;;;;;;;30.60;62.10;;;;;;4983331;28;19914;-81
2021/01/24 05:11:25;;;;;;;;;;;30.50;62.10;;;;;;4991999;28;20321;-81
2021/01/24 05:13:51;;;;;;;;;;;30.50;62.90;;;;;;4985199;28;19925;-81
2021/01/24 05:16:20;;;;;;;;;;;30.50;62.10;;;;;;4992074;28;20237;-82
2021/01/24 05:19:07;;;;;;;;;;;30.60;62.20;;;;;;4990616;28;19975;-82
2021/01/24 05:21:35;;;;;;;;;;;30.50;63.40;;;;;;4990604;28;19913;-81
2021/01/24 05:24:02;;;;;;;;;;;30.40;62.40;;;;;;4992724;28;20009;-82
2021/01/24 05:26:29;;;;;;;;;;;30.30;62.60;;;;;;4979315;28;19910;-81
2021/01/24 05:28:56;;;;;;;;;;;30.20;63.70;;;;;;4986666;28;19914;-80
2021/01/24 05:31:23;;;;;;;;;;;30.30;63.40;;;;;;5002398;28;19914;-81
2021/01/24 05:33:49;;;;;;;;;;;30.30;64.30;;;;;;4997415;28;19949;-81
2021/01/24 05:36:16;;;;;;;;;;;30.30;63.70;;;;;;4996711;28;20276;-79
2021/01/24 05:38:43;;;;;;;;;;;30.40;62.40;;;;;;4995603;28;19910;-81
2021/01/24 05:41:10;;;;;;;;;;;30.30;62.70;;;;;;4997092;28;19941;-81
2021/01/24 05:43:38;;;;;;;;;;;30.10;63.00;;;;;;4978977;28;19924;-82
2021/01/24 05:46:05;;;;;;;;;;;30.00;62.60;;;;;;4997246;28;19917;-81
2021/01/24 05:48:35;;;;;;;;;;;30.10;64.50;;;;;;4991580;28;20426;-82
2021/01/24 05:51:03;;;;;;;;;;;30.10;62.70;;;;;;4997156;28;20345;-80
2021/01/24 05:53:36;;;;;;;;;;;30.00;62.50;;;;;;4993929;28;19944;-82
2021/01/24 05:56:08;;;;;;;;;;;29.90;64.10;;;;;;4994760;28;20000;-81
2021/01/24 05:58:34;;;;;;;;;;;29.90;62.50;;;;;;4993483;28;19917;-82
2021/01/24 06:01:01;;;;;;;;;;;29.90;61.80;;;;;;4996902;28;19913;-83
2021/01/24 06:03:28;;;;;;;;;;;29.90;61.10;;;;;;4997197;28;19918;-81
2021/01/24 06:05:54;;;;;;;;;;;29.80;61.20;;;;;;4991015;28;20376;-81
2021/01/24 06:08:21;;;;;;;;;;;29.60;59.80;;;;;;4977752;28;19944;-81
2021/01/24 06:10:50;;;;;;;;;;;29.60;59.60;;;;;;4992864;28;19914;-86
2021/01/24 06:13:23;;;;;;;;;;;29.60;60.40;;;;;;4994138;28;19976;-83
2021/01/24 06:15:53;;;;;;;;;;;29.50;58.70;;;;;;4990172;28;19918;-82
2021/01/24 06:18:22;;;;;;;;;;;29.40;58.50;;;;;;4996343;28;19913;-81
2021/01/24 06:20:53;;;;;;;;;;;29.40;59.40;;;;;;4987400;28;19918;-82
2021/01/24 06:23:35;;;;;;;;;;;29.30;59.50;;;;;;4991763;28;20193;-79
2021/01/24 06:26:07;;;;;;;;;;;29.30;60.70;;;;;;4996609;28;19910;-79
2021/01/24 06:28:38;;;;;;;;;;;29.40;59.70;;;;;;4996481;28;19913;-80
2021/01/24 06:31:11;;;;;;;;;;;29.40;59.10;;;;;;4988558;28;20361;-85
2021/01/24 06:33:38;;;;;;;;;;;29.30;58.80;;;;;;4988580;28;19922;-82
2021/01/24 06:36:05;;;;;;;;;;;29.30;58.80;;;;;;4966648;28;20313;-77
2021/01/24 06:38:32;;;;;;;;;;;29.30;59.30;;;;;;4994585;28;19914;-79
2021/01/24 06:40:59;;;;;;;;;;;29.20;58.30;;;;;;4989475;28;19917;-80
2021/01/24 06:43:40;;;;;;;;;;;29.20;58.60;;;;;;4972970;28;19992;-79
2021/01/24 06:46:27;;;;;;;;;;;29.20;57.80;;;;;;4992226;28;19918;-81
2021/01/24 06:48:54;;;;;;;;;;;29.20;58.40;;;;;;4960827;28;19945;-80
2021/01/24 06:51:39;;;;;;;;;;;29.10;58.60;;;;;;4986457;28;19986;-79
2021/01/24 06:54:07;;;;;;;;;;;29.10;57.80;;;;;;4983466;28;19949;-79
2021/01/24 06:56:38;;;;;;;;;;;29.10;58.00;;;;;;4987206;28;19933;-81
2021/01/24 06:59:05;;;;;;;;;;;29.10;57.90;;;;;;4981430;28;19920;-82
2021/01/24 07:01:35;;;;;;;;;;;29.10;57.60;;;;;;4988249;28;19944;-80
2021/01/24 07:04:20;;;;;;;;;;;29.00;56.20;;;;;;4981268;28;19918;-80
2021/01/24 07:06:56;;;;;;;;;;;29.10;55.60;;;;;;4979448;28;19921;-80
2021/01/24 07:09:26;;;;;;;;;;;29.00;54.80;;;;;;4981829;28;19926;-77
2021/01/24 07:11:54;;;;;;;;;;;28.90;55.80;;;;;;4989504;28;19918;-80
2021/01/24 07:14:41;;;;;;;;;;;28.80;54.20;;;;;;4987764;28;19924;-80
2021/01/24 07:17:09;;;;;;;;;;;28.80;55.30;;;;;;4984633;28;19914;-81
2021/01/24 07:19:45;;;;;;;;;;;28.70;56.60;;;;;;4992909;28;19921;-80
2021/01/24 07:22:14;;;;;;;;;;;28.50;56.00;;;;;;4988687;28;19922;-81
2021/01/24 07:24:41;;;;;;;;;;;28.40;56.40;;;;;;4974947;28;19961;-80
2021/01/24 07:27:09;;;;;;;;;;;28.20;57.70;;;;;;4987945;28;19924;-80
2021/01/24 07:29:36;;;;;;;;;;;28.00;57.00;;;;;;4988747;28;20472;-81
2021/01/24 07:32:10;;;;;;;;;;;28.00;57.50;;;;;;4985901;28;20316;-79
2021/01/24 07:34:37;;;;;;;;;;;28.00;55.50;;;;;;4974236;28;19944;-80
2021/01/24 07:37:05;;;;;;;;;;;28.10;56.20;;;;;;4981885;28;20246;-79
2021/01/24 07:39:32;;;;;;;;;;;28.00;55.90;;;;;;4979713;28;19984;-80
2021/01/24 07:41:59;;;;;;;;;;;28.00;53.40;;;;;;4988887;28;19913;-81
2021/01/24 07:44:26;;;;;;;;;;;28.00;54.20;;;;;;4983441;28;20017;-80
2021/01/24 07:46:52;;;;;;;;;;;28.00;54.20;;;;;;4981142;28;19925;-79
2021/01/24 07:49:20;;;;;;;;;;;28.00;53.60;;;;;;4986313;28;19913;-79
2021/01/24 07:51:47;;;;;;;;;;;28.00;52.60;;;;;;4968788;28;19924;-80
2021/01/24 07:54:14;;;;;;;;;;;27.90;52.20;;;;;;4982603;28;19937;-80
2021/01/24 07:56:41;;;;;;;;;;;27.90;52.10;;;;;;4982344;28;19999;-80
2021/01/24 07:59:08;;;;;;;;;;;27.90;52.50;;;;;;4985468;28;19951;-80
2021/01/24 08:01:36;;;;;;;;;;;27.80;52.20;;;;;;4987821;28;19913;-80
2021/01/24 08:04:04;;;;;;;;;;;27.80;53.40;;;;;;4985876;28;19922;-79
2021/01/24 08:06:34;;;;;;;;;;;27.80;53.40;;;;;;4992318;28;19917;-78
2021/01/24 08:09:01;;;;;;;;;;;27.70;52.90;;;;;;4973934;28;20448;-79
2021/01/24 08:11:31;;;;;;;;;;;27.70;53.20;;;;;;4993629;28;19909;-77
2021/01/24 08:13:58;;;;;;;;;;;27.70;52.90;;;;;;4991237;28;20012;-78
2021/01/24 08:16:33;;;;;;;;;;;27.70;53.00;;;;;;4989725;28;19913;-78
2021/01/24 08:19:01;;;;;;;;;;;27.70;53.60;;;;;;4992029;28;20052;-79
2021/01/24 08:21:28;;;;;;;;;;;27.70;54.80;;;;;;4989276;28;20391;-79
2021/01/24 08:23:55;;;;;;;;;;;27.60;54.40;;;;;;4988613;28;20006;-80
2021/01/24 08:26:22;;;;;;;;;;;27.50;55.00;;;;;;4989183;28;20391;-80
2021/01/24 08:28:49;;;;;;;;;;;27.50;56.00;;;;;;4977554;28;20120;-81
2021/01/24 08:31:20;;;;;;;;;;;27.50;56.30;;;;;;4992386;28;19922;-78
2021/01/24 08:33:52;;;;;;;;;;;27.40;56.00;;;;;;4981211;28;19925;-80
2021/01/24 08:36:20;;;;;;;;;;;27.40;55.40;;;;;;4991227;28;20472;-81
2021/01/24 08:38:48;;;;;;;;;;;27.40;56.70;;;;;;4989644;28;20348;-79
2021/01/24 08:41:15;;;;;;;;;;;27.30;56.10;;;;;;4993937;28;20000;-79
2021/01/24 08:43:46;;;;;;;;;;;27.30;57.40;;;;;;4992588;28;20203;-80
2021/01/24 08:46:20;;;;;;;;;;;27.30;58.20;;;;;;4994576;28;19924;-79
2021/01/24 08:49:06;;;;;;;;;;;27.30;58.60;;;;;;4994175;28;19909;-79
2021/01/24 08:51:40;;;;;;;;;;;27.30;59.00;;;;;;4999831;28;19914;-81
2021/01/24 08:54:17;;;;;;;;;;;27.30;59.60;;;;;;5003380;28;19936;-79
2021/01/24 08:56:44;;;;;;;;;;;27.30;60.80;;;;;;4998169;28;19920;-81
2021/01/24 08:59:28;;;;;;;;;;;27.20;60.60;;;;;;4993435;28;19921;-78
2021/01/24 09:01:56;;;;;;;;;;;27.10;61.10;;;;;;4996051;28;19919;-79
2021/01/24 09:04:24;;;;;;;;;;;27.10;61.00;;;;;;4993964;28;19914;-80
2021/01/24 09:07:09;;;;;;;;;;;27.00;62.00;;;;;;4994761;28;19910;-79
2021/01/24 09:09:43;;;;;;;;;;;26.90;63.10;;;;;;4995424;28;19910;-80
2021/01/24 09:12:12;;;;;;;;;;;26.90;63.90;;;;;;4994207;28;19913;-80
2021/01/24 09:14:38;;;;;;;;;;;26.80;64.60;;;;;;4994608;28;19929;-80
2021/01/24 09:17:10;;;;;;;;;;;26.80;65.20;;;;;;4993000;28;19910;-80
2021/01/24 09:19:37;;;;;;;;;;;26.80;66.50;;;;;;4972913;28;19915;-80
2021/01/24 09:22:07;;;;;;;;;;;26.80;67.20;;;;;;4987679;28;19914;-80
2021/01/24 09:24:34;;;;;;;;;;;26.70;68.10;;;;;;4992477;28;20427;-80
2021/01/24 09:27:01;;;;;;;;;;;26.60;70.40;;;;;;4993275;28;19949;-80
2021/01/24 09:29:28;;;;;;;;;;;26.60;73.40;;;;;;4993540;28;19917;-79
2021/01/24 09:31:55;;;;;;;;;;;26.50;76.50;;;;;;4993495;28;19910;-79
2021/01/24 09:34:22;;;;;;;;;;;26.40;78.20;;;;;;4993372;28;20383;-79
2021/01/24 09:36:48;;;;;;;;;;;26.20;79.90;;;;;;4992411;28;19913;-83
2021/01/24 09:39:15;;;;;;;;;;;26.20;80.60;;;;;;4992635;28;20005;-83
2021/01/24 09:41:42;;;;;;;;;;;26.20;81.80;;;;;;4992784;28;19992;-80
2021/01/24 09:44:08;;;;;;;;;;;26.20;82.30;;;;;;4992550;28;19924;-81
2021/01/24 09:46:35;;;;;;;;;;;26.20;82.90;;;;;;4992819;28;20432;-78
2021/01/24 09:49:02;;;;;;;;;;;26.10;83.30;;;;;;4994207;28;19910;-80
2021/01/24 09:51:29;;;;;;;;;;;26.10;84.70;;;;;;4993242;28;19917;-80
2021/01/24 09:53:59;;;;;;;;;;;26.00;85.10;;;;;;4992309;28;20291;-84
2021/01/24 09:56:26;;;;;;;;;;;26.00;85.20;;;;;;4993044;28;19920;-81
2021/01/24 09:58:53;;;;;;;;;;;25.90;85.90;;;;;;4993561;28;19909;-81
2021/01/24 10:01:20;;;;;;;;;;;25.90;86.10;;;;;;4993081;28;19964;-82
2021/01/24 10:03:47;;;;;;;;;;;25.80;85.40;;;;;;4993246;28;19920;-80
2021/01/24 10:06:18;;;;;;;;;;;25.80;85.30;;;;;;4992908;28;19909;-79
2021/01/24 10:08:44;;;;;;;;;;;25.80;85.30;;;;;;4992882;28;19914;-81
2021/01/24 10:11:11;;;;;;;;;;;25.80;85.80;;;;;;4994781;28;19914;-81
2021/01/24 10:13:38;;;;;;;;;;;25.80;85.30;;;;;;4996683;28;20348;-79
2021/01/24 10:16:05;;;;;;;;;;;25.80;84.90;;;;;;4996643;28;19914;-80
2021/01/24 10:18:32;;;;;;;;;;;25.80;85.10;;;;;;4992334;28;19914;-83
2021/01/24 10:20:58;;;;;;;;;;;25.80;85.70;;;;;;4995933;28;19924;-81
2021/01/24 10:23:25;;;;;;;;;;;25.70;86.00;;;;;;4995177;28;19930;-81
2021/01/24 10:25:53;;;;;;;;;;;25.70;86.10;;;;;;4996023;28;20300;-79
2021/01/24 10:28:20;;;;;;;;;;;25.60;86.00;;;;;;4996224;28;19918;-80
2021/01/24 10:30:47;;;;;;;;;;;25.60;86.90;;;;;;4996507;28;20233;-80
2021/01/24 10:33:14;;;;;;;;;;;25.60;86.40;;;;;;4995798;28;19918;-81
2021/01/24 10:35:44;;;;;;;;;;;25.50;86.00;;;;;;5001248;28;20000;-79
2021/01/24 10:38:11;;;;;;;;;;;25.60;86.20;;;;;;5001484;28;19917;-79
2021/01/24 10:40:38;;;;;;;;;;;25.60;86.40;;;;;;4999644;28;19916;-80
2021/01/24 10:43:07;;;;;;;;;;;25.60;86.50;;;;;;4999089;28;19910;-79
2021/01/24 10:45:34;;;;;;;;;;;25.60;87.30;;;;;;4996582;28;20380;-79
2021/01/24 10:48:02;;;;;;;;;;;25.60;87.50;;;;;;4997034;28;20289;-79
2021/01/24 10:50:29;;;;;;;;;;;25.60;88.00;;;;;;4997747;28;19977;-79
2021/01/24 10:52:55;;;;;;;;;;;25.60;87.30;;;;;;4996209;28;20335;-80
2021/01/24 10:55:22;;;;;;;;;;;25.60;87.30;;;;;;4996832;28;20296;-80
2021/01/24 10:57:49;;;;;;;;;;;25.50;88.20;;;;;;4998130;28;19910;-79
2021/01/24 11:00:20;;;;;;;;;;;25.50;88.70;;;;;;4997309;28;19910;-81
2021/01/24 11:02:47;;;;;;;;;;;25.60;89.10;;;;;;4997317;28;19925;-80
2021/01/24 11:05:13;;;;;;;;;;;25.60;89.00;;;;;;4995123;28;19917;-80
2021/01/24 11:07:40;;;;;;;;;;;25.50;88.80;;;;;;4995755;28;19917;-81
2021/01/24 11:10:08;;;;;;;;;;;25.60;89.60;;;;;;4995202;28;19978;-79
2021/01/24 11:12:34;;;;;;;;;;;25.50;89.30;;;;;;4977338;28;19914;-80
2021/01/24 11:15:01;;;;;;;;;;;25.50;90.10;;;;;;4995214;28;19925;-81
2021/01/24 11:17:28;;;;;;;;;;;25.50;90.40;;;;;;4995209;28;20285;-80
2021/01/24 11:19:54;;;;;;;;;;;25.50;90.80;;;;;;4994860;28;19914;-80
2021/01/24 11:22:24;;;;;;;;;;;25.50;91.00;;;;;;4993750;28;20396;-81
2021/01/24 11:24:51;;;;;;;;;;;25.40;90.90;;;;;;4990971;28;20379;-80
2021/01/24 11:27:18;;;;;;;;;;;25.40;90.90;;;;;;4984601;28;20353;-80
2021/01/24 11:29:44;;;;;;;;;;;25.40;91.00;;;;;;4975662;28;19953;-79
2021/01/24 11:32:14;;;;;;;;;;;25.30;91.30;;;;;;4995339;28;19960;-80
2021/01/24 11:34:41;;;;;;;;;;;25.30;91.40;;;;;;4982977;28;19926;-79
2021/01/24 11:37:08;;;;;;;;;;;25.30;92.00;;;;;;4975643;28;19933;-82
2021/01/24 11:39:35;;;;;;;;;;;25.30;92.10;;;;;;4986722;28;19913;-81
2021/01/24 11:42:03;;;;;;;;;;;25.30;92.10;;;;;;4994532;28;20258;-81
2021/01/24 11:44:30;;;;;;;;;;;25.30;92.40;;;;;;4995628;28;19919;-83
2021/01/24 11:46:57;;;;;;;;;;;25.20;92.80;;;;;;4994864;28;19921;-83
2021/01/24 11:49:24;;;;;;;;;;;25.20;92.90;;;;;;4997911;28;19956;-83
2021/01/24 11:51:50;;;;;;;;;;;25.20;93.10;;;;;;4996617;28;19960;-82
2021/01/24 11:54:17;;;;;;;;;;;25.20;93.00;;;;;;4993959;28;19922;-83
2021/01/24 11:56:44;;;;;;;;;;;25.20;93.30;;;;;;4990900;28;20036;-82
2021/01/24 11:59:11;;;;;;;;;;;25.20;93.40;;;;;;4993483;28;19918;-82
2021/01/24 12:01:38;;;;;;;;;;;25.20;93.60;;;;;;4987423;28;19945;-82
2021/01/24 12:04:05;;;;;;;;;;;25.10;93.90;;;;;;4989359;28;20315;-82
2021/01/24 12:06:31;;;;;;;;;;;25.10;94.00;;;;;;4987915;28;19921;-82
2021/01/24 12:08:58;;;;;;;;;;;25.10;94.30;;;;;;4965579;28;19910;-82
2021/01/24 12:11:25;;;;;;;;;;;25.00;94.30;;;;;;4993074;28;19976;-82
2021/01/24 12:13:51;;;;;;;;;;;25.00;94.50;;;;;;4993087;28;19972;-82
2021/01/24 12:16:18;;;;;;;;;;;24.90;94.80;;;;;;4994803;28;19965;-82
2021/01/24 12:18:45;;;;;;;;;;;24.90;94.70;;;;;;5013239;28;19936;-82
2021/01/24 12:21:11;;;;;;;;;;;24.90;94.70;;;;;;5013225;28;19917;-82
2021/01/24 12:23:38;;;;;;;;;;;24.80;94.80;;;;;;4994983;28;19910;-82
2021/01/24 12:26:05;;;;;;;;;;;24.90;94.90;;;;;;4994514;28;20357;-81
2021/01/24 12:28:31;;;;;;;;;;;24.80;94.90;;;;;;4994222;28;20395;-81
2021/01/24 12:30:58;;;;;;;;;;;24.80;95.00;;;;;;4993215;28;19992;-81
2021/01/24 12:33:25;;;;;;;;;;;24.70;95.10;;;;;;4993085;28;20320;-82
2021/01/24 12:35:51;;;;;;;;;;;24.70;95.10;;;;;;4994408;28;20392;-82
2021/01/24 12:38:18;;;;;;;;;;;24.70;95.30;;;;;;4994313;28;19917;-82
2021/01/24 12:40:45;;;;;;;;;;;24.60;95.50;;;;;;4976779;28;19917;-82
2021/01/24 12:43:11;;;;;;;;;;;24.60;95.60;;;;;;4993686;28;20008;-82
2021/01/24 12:45:38;;;;;;;;;;;24.60;95.60;;;;;;4994264;28;20368;-82
2021/01/24 12:48:05;;;;;;;;;;;24.60;95.40;;;;;;4993607;28;20012;-82
2021/01/24 12:50:31;;;;;;;;;;;24.50;95.50;;;;;;4993607;28;19913;-82
2021/01/24 12:52:58;;;;;;;;;;;24.50;95.70;;;;;;4994267;28;20001;-81
2021/01/24 12:55:25;;;;;;;;;;;24.50;95.80;;;;;;4994118;28;19980;-82
2021/01/24 12:57:52;;;;;;;;;;;24.40;95.90;;;;;;4994218;28;19938;-82
2021/01/24 13:00:19;;;;;;;;;;;24.50;95.90;;;;;;4994051;28;19914;-82
2021/01/24 13:02:45;;;;;;;;;;;24.40;95.80;;;;;;4993820;28;19916;-82
2021/01/24 13:05:13;;;;;;;;;;;24.50;95.90;;;;;;4993227;28;19948;-81
2021/01/24 13:07:40;;;;;;;;;;;24.40;95.80;;;;;;4993978;28;19917;-82
2021/01/24 13:10:07;;;;;;;;;;;24.40;95.70;;;;;;4993509;28;20280;-83
2021/01/24 13:12:35;;;;;;;;;;;24.50;95.70;;;;;;4993945;28;19949;-80
2021/01/24 13:15:05;;;;;;;;;;;24.50;95.80;;;;;;4993714;28;19957;-82
2021/01/24 13:17:32;;;;;;;;;;;24.50;95.70;;;;;;4994142;28;19910;-82
2021/01/24 13:19:59;;;;;;;;;;;24.50;95.70;;;;;;4993410;28;19910;-81
2021/01/24 13:22:25;;;;;;;;;;;24.50;95.70;;;;;;4993903;28;20004;-81
2021/01/24 13:24:52;;;;;;;;;;;24.50;95.80;;;;;;4993735;28;19917;-81
2021/01/24 13:27:19;;;;;;;;;;;24.50;96.10;;;;;;4993684;28;19917;-80
2021/01/24 13:29:45;;;;;;;;;;;24.50;96.30;;;;;;4993608;28;19910;-81
2021/01/24 13:32:12;;;;;;;;;;;24.50;96.40;;;;;;4993565;28;19910;-81
2021/01/24 13:34:39;;;;;;;;;;;24.50;96.60;;;;;;4993464;28;20276;-82
2021/01/24 13:37:05;;;;;;;;;;;24.50;96.80;;;;;;4993665;28;20269;-82
2021/01/24 13:39:32;;;;;;;;;;;24.50;96.80;;;;;;4993575;28;19945;-81
2021/01/24 13:41:58;;;;;;;;;;;24.40;96.90;;;;;;4993239;28;20276;-81
2021/01/24 13:44:25;;;;;;;;;;;24.30;96.90;;;;;;4993462;28;20426;-81
2021/01/24 13:46:52;;;;;;;;;;;24.30;97.00;;;;;;4996189;28;19910;-81
2021/01/24 13:49:19;;;;;;;;;;;24.30;97.00;;;;;;4996996;28;19921;-81
2021/01/24 13:51:45;;;;;;;;;;;24.30;97.10;;;;;;4997364;28;19980;-81
2021/01/24 13:54:12;;;;;;;;;;;24.20;97.10;;;;;;4997130;28;20017;-82
2021/01/24 13:56:38;;;;;;;;;;;24.30;97.10;;;;;;4997280;28;19949;-81
2021/01/24 13:59:05;;;;;;;;;;;24.30;97.00;;;;;;4997168;28;19910;-81
2021/01/24 14:01:32;;;;;;;;;;;24.20;97.10;;;;;;4996440;28;20004;-81
2021/01/24 14:03:59;;;;;;;;;;;24.20;97.20;;;;;;4997221;28;19917;-81
2021/01/24 14:06:26;;;;;;;;;;;24.20;97.30;;;;;;4997254;28;19910;-80
2021/01/24 14:08:52;;;;;;;;;;;24.20;97.20;;;;;;4997072;28;20008;-81
2021/01/24 14:11:19;;;;;;;;;;;24.20;97.00;;;;;;4996304;28;21547;-81
2021/01/24 14:13:46;;;;;;;;;;;24.20;97.10;;;;;;4996831;28;19918;-81
2021/01/24 14:16:12;;;;;;;;;;;24.20;97.10;;;;;;4996542;28;20048;-80
2021/01/24 14:18:41;;;;;;;;;;;24.10;97.30;;;;;;4996779;28;19979;-81
2021/01/24 14:21:07;;;;;;;;;;;24.10;97.30;;;;;;4996502;28;19953;-81